sensor_id;sensor_type;location;lat;lon;timestamp;temperature;humidity
30648;DHT22;17683;53.360;9.736;2023-07-08T00:00:42;16.40;99.90
30648;DHT22;17683;53.360;9.736;2023-07-08T00:03:08;16.40;99.90
30648;DHT22;17683;53.360;9.736;2023-07-08T00:05:34;16.40;99.90
30648;DHT22;17683;53.360;9.736;2023-07-08T00:08:01;16.30;99.90
30648;DHT22;17683;53.360;9.736;2023-07-08T00:10:27;16.30;99.90
30648;DHT22;17683;53.360;9.736;2023-07-08T00:12:55;16.30;99.90
30648;DHT22;17683;53.360;9.736;2023-07-08T00:15:26;16.30;99.90
30648;DHT22;17683;53.360;9.736;2023-07-08T00:17:53;16.30;99.90
30648;DHT22;17683;53.360;9.736;2023-07-08T00:20:40;16.20;99.90
30648;DHT22;17683;53.360;9.736;2023-07-08T00:23:09;16.20;99.90
30648;DHT22;17683;53.360;9.736;2023-07-08T00:25:34;16.30;99.90
30648;DHT22;17683;53.360;9.736;2023-07-08T00:28:00;16.20;99.90
30648;DHT22;17683;53.360;9.736;2023-07-08T00:30:30;16.20;99.90
30648;DHT22;17683;53.360;9.736;2023-07-08T00:32:57;16.10;99.90
30648;DHT22;17683;53.360;9.736;2023-07-08T00:35:35;16.10;99.90
30648;DHT22;17683;53.360;9.736;2023-07-08T00:38:14;16.10;99.90
30648;DHT22;17683;53.360;9.736;2023-07-08T00:49:14;16.10;99.90
30648;DHT22;17683;53.360;9.736;2023-07-08T00:51:41;16.10;99.90
30648;DHT22;17683;53.360;9.736;2023-07-08T00:54:18;16.10;99.90
30648;DHT22;17683;53.360;9.736;2023-07-08T00:56:59;16.20;99.90
30648;DHT22;17683;53.360;9.736;2023-07-08T01:00:04;16.10;99.90
30648;DHT22;17683;53.360;9.736;2023-07-08T01:02:32;16.10;99.90
30648;DHT22;17683;53.360;9.736;2023-07-08T01:05:13;16.10;99.90
30648;DHT22;17683;53.360;9.736;2023-07-08T01:07:42;16.00;99.90
30648;DHT22;17683;53.360;9.736;2023-07-08T01:10:14;16.10;99.90
30648;DHT22;17683;53.360;9.736;2023-07-08T01:12:44;16.10;99.90
30648;DHT22;17683;53.360;9.736;2023-07-08T01:15:11;16.20;99.90
30648;DHT22;17683;53.360;9.736;2023-07-08T01:17:40;16.30;99.90
30648;DHT22;17683;53.360;9.736;2023-07-08T01:20:07;16.30;99.90
30648;DHT22;17683;53.360;9.736;2023-07-08T01:22:39;16.30;99.90
30648;DHT22;17683;53.360;9.736;2023-07-08T01:25:06;16.30;99.90
30648;DHT22;17683;53.360;9.736;2023-07-08T01:27:35;16.30;99.90
30648;DHT22;17683;53.360;9.736;2023-07-08T01:30:03;16.30;99.90
30648;DHT22;17683;53.360;9.736;2023-07-08T01:32:29;16.30;99.90
30648;DHT22;17683;53.360;9.736;2023-07-08T01:35:01;16.30;99.90
30648;DHT22;17683;53.360;9.736;2023-07-08T01:37:37;16.30;99.90
30648;DHT22;17683;53.360;9.736;2023-07-08T01:42:45;16.40;99.90
30648;DHT22;17683;53.360;9.736;2023-07-08T01:45:16;16.40;99.90
30648;DHT22;17683;53.360;9.736;2023-07-08T01:47:46;16.50;99.90
30648;DHT22;17683;53.360;9.736;2023-07-08T01:50:14;16.50;99.90
30648;DHT22;17683;53.360;9.736;2023-07-08T01:52:40;16.60;99.90
30648;DHT22;17683;53.360;9.736;2023-07-08T01:55:06;16.60;99.90
30648;DHT22;17683;53.360;9.736;2023-07-08T01:57:32;16.70;99.90
30648;DHT22;17683;53.360;9.736;2023-07-08T01:59:58;16.70;99.90
30648;DHT22;17683;53.360;9.736;2023-07-08T02:02:24;16.70;99.90
30648;DHT22;17683;53.360;9.736;2023-07-08T02:04:50;16.80;99.90
30648;DHT22;17683;53.360;9.736;2023-07-08T02:07:15;16.80;99.90
30648;DHT22;17683;53.360;9.736;2023-07-08T02:09:41;16.90;99.90
30648;DHT22;17683;53.360;9.736;2023-07-08T02:12:07;16.90;99.90
30648;DHT22;17683;53.360;9.736;2023-07-08T02:14:33;17.00;99.90
30648;DHT22;17683;53.360;9.736;2023-07-08T02:16:59;16.90;99.90
30648;DHT22;17683;53.360;9.736;2023-07-08T02:19:25;16.90;99.90
30648;DHT22;17683;53.360;9.736;2023-07-08T02:21:53;17.00;99.90
30648;DHT22;17683;53.360;9.736;2023-07-08T02:24:18;17.00;99.90
30648;DHT22;17683;53.360;9.736;2023-07-08T02:26:44;17.10;99.90
30648;DHT22;17683;53.360;9.736;2023-07-08T02:29:12;17.10;99.90
30648;DHT22;17683;53.360;9.736;2023-07-08T02:31:38;17.10;99.90
30648;DHT22;17683;53.360;9.736;2023-07-08T02:34:04;17.10;99.90
30648;DHT22;17683;53.360;9.736;2023-07-08T02:36:29;17.10;99.90
30648;DHT22;17683;53.360;9.736;2023-07-08T02:38:55;17.20;99.90
30648;DHT22;17683;53.360;9.736;2023-07-08T02:41:21;17.10;99.90
30648;DHT22;17683;53.360;9.736;2023-07-08T02:43:47;17.10;99.90
30648;DHT22;17683;53.360;9.736;2023-07-08T02:46:12;17.10;99.90
30648;DHT22;17683;53.360;9.736;2023-07-08T02:48:38;17.10;99.90
30648;DHT22;17683;53.360;9.736;2023-07-08T02:51:05;17.10;99.90
30648;DHT22;17683;53.360;9.736;2023-07-08T02:53:31;17.10;99.90
30648;DHT22;17683;53.360;9.736;2023-07-08T02:55:57;17.10;99.90
30648;DHT22;17683;53.360;9.736;2023-07-08T02:58:23;17.10;99.90
30648;DHT22;17683;53.360;9.736;2023-07-08T03:00:56;17.10;99.90
30648;DHT22;17683;53.360;9.736;2023-07-08T03:03:26;17.10;99.90
30648;DHT22;17683;53.360;9.736;2023-07-08T03:05:57;17.10;99.90
30648;DHT22;17683;53.360;9.736;2023-07-08T03:08:24;17.20;99.90
30648;DHT22;17683;53.360;9.736;2023-07-08T03:11:01;17.20;99.90
30648;DHT22;17683;53.360;9.736;2023-07-08T03:13:28;17.30;99.90
30648;DHT22;17683;53.360;9.736;2023-07-08T03:15:54;17.30;99.90
30648;DHT22;17683;53.360;9.736;2023-07-08T03:18:21;17.30;99.90
30648;DHT22;17683;53.360;9.736;2023-07-08T03:20:49;17.30;99.90
30648;DHT22;17683;53.360;9.736;2023-07-08T03:23:15;17.40;99.90
30648;DHT22;17683;53.360;9.736;2023-07-08T03:25:41;17.40;99.90
30648;DHT22;17683;53.360;9.736;2023-07-08T03:28:08;17.40;99.90
30648;DHT22;17683;53.360;9.736;2023-07-08T03:30:40;17.40;99.90
30648;DHT22;17683;53.360;9.736;2023-07-08T03:33:06;17.30;99.90
30648;DHT22;17683;53.360;9.736;2023-07-08T03:35:32;17.30;99.90
30648;DHT22;17683;53.360;9.736;2023-07-08T03:37:58;17.30;99.90
30648;DHT22;17683;53.360;9.736;2023-07-08T03:40:24;17.30;99.90
30648;DHT22;17683;53.360;9.736;2023-07-08T03:42:49;17.30;99.90
30648;DHT22;17683;53.360;9.736;2023-07-08T03:45:15;17.30;99.90
30648;DHT22;17683;53.360;9.736;2023-07-08T03:47:41;17.30;99.90
30648;DHT22;17683;53.360;9.736;2023-07-08T03:50:18;17.30;99.90
30648;DHT22;17683;53.360;9.736;2023-07-08T03:52:45;17.30;99.90
30648;DHT22;17683;53.360;9.736;2023-07-08T03:55:11;17.30;99.90
30648;DHT22;17683;53.360;9.736;2023-07-08T03:57:37;17.30;99.90
30648;DHT22;17683;53.360;9.736;2023-07-08T04:00:04;17.30;99.90
30648;DHT22;17683;53.360;9.736;2023-07-08T04:02:30;17.30;99.90
30648;DHT22;17683;53.360;9.736;2023-07-08T04:04:55;17.30;99.90
30648;DHT22;17683;53.360;9.736;2023-07-08T04:07:21;17.40;99.90
30648;DHT22;17683;53.360;9.736;2023-07-08T04:09:47;17.40;99.90
30648;DHT22;17683;53.360;9.736;2023-07-08T04:12:16;17.40;99.90
30648;DHT22;17683;53.360;9.736;2023-07-08T04:14:42;17.50;99.90
30648;DHT22;17683;53.360;9.736;2023-07-08T04:17:09;17.50;99.90
30648;DHT22;17683;53.360;9.736;2023-07-08T04:19:35;17.50;99.90
30648;DHT22;17683;53.360;9.736;2023-07-08T04:22:02;17.50;99.90
30648;DHT22;17683;53.360;9.736;2023-07-08T04:24:28;17.50;99.90
30648;DHT22;17683;53.360;9.736;2023-07-08T04:26:53;17.50;99.90
30648;DHT22;17683;53.360;9.736;2023-07-08T04:29:21;17.50;99.90
30648;DHT22;17683;53.360;9.736;2023-07-08T04:31:48;17.50;99.90
30648;DHT22;17683;53.360;9.736;2023-07-08T04:34:15;17.50;99.90
30648;DHT22;17683;53.360;9.736;2023-07-08T04:36:40;17.60;99.90
30648;DHT22;17683;53.360;9.736;2023-07-08T04:39:07;17.60;99.90
30648;DHT22;17683;53.360;9.736;2023-07-08T04:41:35;17.60;99.90
30648;DHT22;17683;53.360;9.736;2023-07-08T04:44:11;17.60;99.90
30648;DHT22;17683;53.360;9.736;2023-07-08T04:46:41;17.70;99.90
30648;DHT22;17683;53.360;9.736;2023-07-08T04:49:08;17.70;99.90
30648;DHT22;17683;53.360;9.736;2023-07-08T04:51:39;17.70;99.90
30648;DHT22;17683;53.360;9.736;2023-07-08T04:54:06;17.70;99.90
30648;DHT22;17683;53.360;9.736;2023-07-08T04:56:50;17.70;99.90
30648;DHT22;17683;53.360;9.736;2023-07-08T04:59:21;17.70;99.90
30648;DHT22;17683;53.360;9.736;2023-07-08T05:01:47;17.70;99.90
30648;DHT22;17683;53.360;9.736;2023-07-08T05:04:14;17.70;99.90
30648;DHT22;17683;53.360;9.736;2023-07-08T05:06:40;17.70;99.90
30648;DHT22;17683;53.360;9.736;2023-07-08T05:09:07;17.80;99.90
30648;DHT22;17683;53.360;9.736;2023-07-08T05:11:33;17.80;99.90
30648;DHT22;17683;53.360;9.736;2023-07-08T05:13:59;17.90;99.90
30648;DHT22;17683;53.360;9.736;2023-07-08T05:16:25;18.10;99.90
30648;DHT22;17683;53.360;9.736;2023-07-08T05:18:51;18.20;99.90
30648;DHT22;17683;53.360;9.736;2023-07-08T05:21:18;18.40;99.90
30648;DHT22;17683;53.360;9.736;2023-07-08T05:23:45;18.60;99.90
30648;DHT22;17683;53.360;9.736;2023-07-08T05:26:11;18.80;99.90
30648;DHT22;17683;53.360;9.736;2023-07-08T05:28:37;19.00;99.90
30648;DHT22;17683;53.360;9.736;2023-07-08T05:31:02;19.20;99.90
30648;DHT22;17683;53.360;9.736;2023-07-08T05:33:30;19.40;99.90
30648;DHT22;17683;53.360;9.736;2023-07-08T05:35:56;19.60;99.90
30648;DHT22;17683;53.360;9.736;2023-07-08T05:38:23;19.80;99.90
30648;DHT22;17683;53.360;9.736;2023-07-08T05:40:56;19.90;99.90
30648;DHT22;17683;53.360;9.736;2023-07-08T05:43:22;20.00;99.90
30648;DHT22;17683;53.360;9.736;2023-07-08T05:45:48;20.20;99.90
30648;DHT22;17683;53.360;9.736;2023-07-08T05:48:14;20.40;99.90
30648;DHT22;17683;53.360;9.736;2023-07-08T05:50:40;20.50;99.90
30648;DHT22;17683;53.360;9.736;2023-07-08T05:53:09;20.60;99.90
30648;DHT22;17683;53.360;9.736;2023-07-08T05:55:35;20.70;99.90
30648;DHT22;17683;53.360;9.736;2023-07-08T05:58:00;20.80;99.90
30648;DHT22;17683;53.360;9.736;2023-07-08T06:00:26;21.00;99.90
30648;DHT22;17683;53.360;9.736;2023-07-08T06:02:52;21.00;99.80
30648;DHT22;17683;53.360;9.736;2023-07-08T06:05:18;21.20;99.70
30648;DHT22;17683;53.360;9.736;2023-07-08T06:07:43;21.40;99.50
30648;DHT22;17683;53.360;9.736;2023-07-08T06:10:10;21.40;99.50
30648;DHT22;17683;53.360;9.736;2023-07-08T06:12:35;21.50;99.90
30648;DHT22;17683;53.360;9.736;2023-07-08T06:15:01;21.70;99.90
30648;DHT22;17683;53.360;9.736;2023-07-08T06:17:27;21.80;99.70
30648;DHT22;17683;53.360;9.736;2023-07-08T06:19:53;21.90;99.80
30648;DHT22;17683;53.360;9.736;2023-07-08T06:22:18;22.00;98.90
30648;DHT22;17683;53.360;9.736;2023-07-08T06:24:44;22.20;98.00
30648;DHT22;17683;53.360;9.736;2023-07-08T06:27:10;22.30;98.80
30648;DHT22;17683;53.360;9.736;2023-07-08T06:29:36;22.40;99.50
30648;DHT22;17683;53.360;9.736;2023-07-08T06:32:02;22.40;97.70
30648;DHT22;17683;53.360;9.736;2023-07-08T06:34:27;22.50;98.80
30648;DHT22;17683;53.360;9.736;2023-07-08T06:36:53;22.50;98.30
30648;DHT22;17683;53.360;9.736;2023-07-08T06:39:19;22.70;98.30
30648;DHT22;17683;53.360;9.736;2023-07-08T06:41:45;22.80;98.10
30648;DHT22;17683;53.360;9.736;2023-07-08T06:44:11;22.90;98.50
30648;DHT22;17683;53.360;9.736;2023-07-08T06:46:37;23.00;98.20
30648;DHT22;17683;53.360;9.736;2023-07-08T06:49:02;23.20;97.00
30648;DHT22;17683;53.360;9.736;2023-07-08T06:51:28;23.20;97.40
30648;DHT22;17683;53.360;9.736;2023-07-08T06:53:55;23.10;97.00
30648;DHT22;17683;53.360;9.736;2023-07-08T06:56:20;23.40;97.80
30648;DHT22;17683;53.360;9.736;2023-07-08T06:58:46;23.50;98.20
30648;DHT22;17683;53.360;9.736;2023-07-08T07:01:12;23.60;96.10
30648;DHT22;17683;53.360;9.736;2023-07-08T07:03:39;23.60;96.00
30648;DHT22;17683;53.360;9.736;2023-07-08T07:06:05;23.80;96.60
30648;DHT22;17683;53.360;9.736;2023-07-08T07:08:30;24.10;97.20
30648;DHT22;17683;53.360;9.736;2023-07-08T07:10:56;24.10;95.90
30648;DHT22;17683;53.360;9.736;2023-07-08T07:13:22;24.30;96.40
30648;DHT22;17683;53.360;9.736;2023-07-08T07:15:49;24.50;95.80
30648;DHT22;17683;53.360;9.736;2023-07-08T07:18:14;24.60;95.80
30648;DHT22;17683;53.360;9.736;2023-07-08T07:20:50;24.40;96.00
30648;DHT22;17683;53.360;9.736;2023-07-08T07:23:16;24.50;96.30
30648;DHT22;17683;53.360;9.736;2023-07-08T07:25:42;24.30;95.90
30648;DHT22;17683;53.360;9.736;2023-07-08T07:28:09;24.50;96.40
30648;DHT22;17683;53.360;9.736;2023-07-08T07:30:35;24.70;96.80
30648;DHT22;17683;53.360;9.736;2023-07-08T07:33:01;24.80;97.10
30648;DHT22;17683;53.360;9.736;2023-07-08T07:35:26;24.90;96.00
30648;DHT22;17683;53.360;9.736;2023-07-08T07:37:52;25.00;96.00
30648;DHT22;17683;53.360;9.736;2023-07-08T07:40:18;25.20;96.10
30648;DHT22;17683;53.360;9.736;2023-07-08T07:42:45;25.30;94.50
30648;DHT22;17683;53.360;9.736;2023-07-08T07:45:12;25.40;95.00
30648;DHT22;17683;53.360;9.736;2023-07-08T07:47:38;25.50;93.80
30648;DHT22;17683;53.360;9.736;2023-07-08T07:50:06;25.60;94.40
30648;DHT22;17683;53.360;9.736;2023-07-08T07:52:32;25.80;94.20
30648;DHT22;17683;53.360;9.736;2023-07-08T07:54:58;25.90;94.60
30648;DHT22;17683;53.360;9.736;2023-07-08T07:57:24;26.10;93.90
30648;DHT22;17683;53.360;9.736;2023-07-08T07:59:50;26.30;94.10
30648;DHT22;17683;53.360;9.736;2023-07-08T08:02:17;26.40;93.00
30648;DHT22;17683;53.360;9.736;2023-07-08T08:04:43;26.40;93.40
30648;DHT22;17683;53.360;9.736;2023-07-08T08:07:09;26.50;93.70
30648;DHT22;17683;53.360;9.736;2023-07-08T08:09:36;26.40;92.20
30648;DHT22;17683;53.360;9.736;2023-07-08T08:12:02;26.50;92.40
30648;DHT22;17683;53.360;9.736;2023-07-08T08:14:28;26.30;92.40
30648;DHT22;17683;53.360;9.736;2023-07-08T08:16:54;26.50;93.20
30648;DHT22;17683;53.360;9.736;2023-07-08T08:19:20;26.50;93.30
30648;DHT22;17683;53.360;9.736;2023-07-08T08:21:46;26.60;93.20
30648;DHT22;17683;53.360;9.736;2023-07-08T08:24:11;26.80;93.30
30648;DHT22;17683;53.360;9.736;2023-07-08T08:26:37;26.80;92.50
30648;DHT22;17683;53.360;9.736;2023-07-08T08:29:03;27.00;93.20
30648;DHT22;17683;53.360;9.736;2023-07-08T08:31:28;27.10;92.60
30648;DHT22;17683;53.360;9.736;2023-07-08T08:33:56;27.00;92.50
30648;DHT22;17683;53.360;9.736;2023-07-08T08:36:22;27.00;92.70
30648;DHT22;17683;53.360;9.736;2023-07-08T08:38:49;27.00;92.50
30648;DHT22;17683;53.360;9.736;2023-07-08T08:41:19;27.10;92.30
30648;DHT22;17683;53.360;9.736;2023-07-08T08:43:47;27.20;92.70
30648;DHT22;17683;53.360;9.736;2023-07-08T08:48:57;27.50;93.20
30648;DHT22;17683;53.360;9.736;2023-07-08T08:51:26;27.60;93.10
30648;DHT22;17683;53.360;9.736;2023-07-08T08:53:56;27.70;92.30
30648;DHT22;17683;53.360;9.736;2023-07-08T08:56:25;27.80;92.10
30648;DHT22;17683;53.360;9.736;2023-07-08T08:59:13;28.00;91.40
30648;DHT22;17683;53.360;9.736;2023-07-08T09:01:41;27.80;92.20
30648;DHT22;17683;53.360;9.736;2023-07-08T09:04:21;27.90;91.20
30648;DHT22;17683;53.360;9.736;2023-07-08T09:06:48;28.10;92.10
30648;DHT22;17683;53.360;9.736;2023-07-08T09:09:19;28.10;91.70
30648;DHT22;17683;53.360;9.736;2023-07-08T09:12:05;28.00;92.00
30648;DHT22;17683;53.360;9.736;2023-07-08T09:14:34;28.00;92.50
30648;DHT22;17683;53.360;9.736;2023-07-08T09:17:31;28.30;92.90
30648;DHT22;17683;53.360;9.736;2023-07-08T09:22:36;28.50;92.20
30648;DHT22;17683;53.360;9.736;2023-07-08T09:27:54;28.70;92.70
30648;DHT22;17683;53.360;9.736;2023-07-08T09:30:23;28.70;91.60
30648;DHT22;17683;53.360;9.736;2023-07-08T09:32:50;29.00;92.40
30648;DHT22;17683;53.360;9.736;2023-07-08T09:35:25;29.20;92.20
30648;DHT22;17683;53.360;9.736;2023-07-08T09:37:51;29.10;93.60
30648;DHT22;17683;53.360;9.736;2023-07-08T09:40:32;28.90;90.10
30648;DHT22;17683;53.360;9.736;2023-07-08T09:45:50;28.70;90.80
30648;DHT22;17683;53.360;9.736;2023-07-08T09:50:43;28.90;90.40
30648;DHT22;17683;53.360;9.736;2023-07-08T09:53:13;29.00;91.70
30648;DHT22;17683;53.360;9.736;2023-07-08T09:55:39;29.20;91.40
30648;DHT22;17683;53.360;9.736;2023-07-08T09:58:05;29.30;89.10
30648;DHT22;17683;53.360;9.736;2023-07-08T10:00:39;29.50;90.80
30648;DHT22;17683;53.360;9.736;2023-07-08T10:03:17;29.50;88.30
30648;DHT22;17683;53.360;9.736;2023-07-08T10:05:47;29.50;89.80
30648;DHT22;17683;53.360;9.736;2023-07-08T10:08:19;29.50;90.20
30648;DHT22;17683;53.360;9.736;2023-07-08T10:11:01;29.60;90.70
30648;DHT22;17683;53.360;9.736;2023-07-08T10:13:46;29.70;89.60
30648;DHT22;17683;53.360;9.736;2023-07-08T10:16:24;29.90;90.40
30648;DHT22;17683;53.360;9.736;2023-07-08T10:18:51;29.80;90.00
30648;DHT22;17683;53.360;9.736;2023-07-08T10:24:32;29.70;90.00
30648;DHT22;17683;53.360;9.736;2023-07-08T10:27:20;29.80;88.00
30648;DHT22;17683;53.360;9.736;2023-07-08T10:35:33;29.90;89.80
30648;DHT22;17683;53.360;9.736;2023-07-08T11:06:08;30.60;88.40
30648;DHT22;17683;53.360;9.736;2023-07-08T11:08:44;30.60;85.70
30648;DHT22;17683;53.360;9.736;2023-07-08T11:13:54;30.90;87.60
30648;DHT22;17683;53.360;9.736;2023-07-08T11:16:35;31.10;90.30
30648;DHT22;17683;53.360;9.736;2023-07-08T11:19:13;31.30;87.80
30648;DHT22;17683;53.360;9.736;2023-07-08T11:21:44;31.30;87.10
30648;DHT22;17683;53.360;9.736;2023-07-08T11:27:01;31.20;85.80
30648;DHT22;17683;53.360;9.736;2023-07-08T11:29:46;31.20;83.20
30648;DHT22;17683;53.360;9.736;2023-07-08T11:32:16;31.20;82.90
30648;DHT22;17683;53.360;9.736;2023-07-08T11:34:44;31.30;86.20
30648;DHT22;17683;53.360;9.736;2023-07-08T11:37:12;31.40;83.00
30648;DHT22;17683;53.360;9.736;2023-07-08T11:39:44;31.30;83.10
30648;DHT22;17683;53.360;9.736;2023-07-08T11:44:48;31.60;83.80
30648;DHT22;17683;53.360;9.736;2023-07-08T11:47:38;31.70;85.50
30648;DHT22;17683;53.360;9.736;2023-07-08T11:50:22;31.50;82.30
30648;DHT22;17683;53.360;9.736;2023-07-08T11:55:44;31.40;81.90
30648;DHT22;17683;53.360;9.736;2023-07-08T11:58:22;31.10;83.50
30648;DHT22;17683;53.360;9.736;2023-07-08T12:00:59;31.20;84.30
30648;DHT22;17683;53.360;9.736;2023-07-08T12:03:36;31.40;81.90
30648;DHT22;17683;53.360;9.736;2023-07-08T12:06:02;31.40;85.20
30648;DHT22;17683;53.360;9.736;2023-07-08T12:08:37;31.40;83.20
30648;DHT22;17683;53.360;9.736;2023-07-08T12:11:11;31.60;83.60
30648;DHT22;17683;53.360;9.736;2023-07-08T12:13:38;31.70;83.70
30648;DHT22;17683;53.360;9.736;2023-07-08T12:16:11;31.60;82.20
30648;DHT22;17683;53.360;9.736;2023-07-08T12:18:39;31.30;82.10
30648;DHT22;17683;53.360;9.736;2023-07-08T12:21:12;31.30;82.70
30648;DHT22;17683;53.360;9.736;2023-07-08T12:23:44;31.20;82.30
30648;DHT22;17683;53.360;9.736;2023-07-08T12:26:10;31.30;84.40
30648;DHT22;17683;53.360;9.736;2023-07-08T12:28:39;31.40;84.70
30648;DHT22;17683;53.360;9.736;2023-07-08T12:31:17;31.20;82.10
30648;DHT22;17683;53.360;9.736;2023-07-08T12:33:44;31.30;82.60
30648;DHT22;17683;53.360;9.736;2023-07-08T12:36:14;31.40;82.70
30648;DHT22;17683;53.360;9.736;2023-07-08T12:38:42;31.40;86.40
30648;DHT22;17683;53.360;9.736;2023-07-08T12:41:22;31.30;80.90
30648;DHT22;17683;53.360;9.736;2023-07-08T12:43:49;31.40;83.50
30648;DHT22;17683;53.360;9.736;2023-07-08T12:46:17;31.40;83.90
30648;DHT22;17683;53.360;9.736;2023-07-08T12:48:43;31.30;82.00
30648;DHT22;17683;53.360;9.736;2023-07-08T12:51:18;31.40;83.20
30648;DHT22;17683;53.360;9.736;2023-07-08T12:53:46;31.30;81.60
30648;DHT22;17683;53.360;9.736;2023-07-08T12:56:12;31.20;80.80
30648;DHT22;17683;53.360;9.736;2023-07-08T12:58:41;31.30;83.10
30648;DHT22;17683;53.360;9.736;2023-07-08T13:01:08;31.30;79.80
30648;DHT22;17683;53.360;9.736;2023-07-08T13:03:45;31.10;79.30
30648;DHT22;17683;53.360;9.736;2023-07-08T13:06:16;31.30;83.60
30648;DHT22;17683;53.360;9.736;2023-07-08T13:08:42;31.30;83.70
30648;DHT22;17683;53.360;9.736;2023-07-08T13:11:11;31.30;82.70
30648;DHT22;17683;53.360;9.736;2023-07-08T13:13:46;31.30;82.20
30648;DHT22;17683;53.360;9.736;2023-07-08T13:16:14;31.20;80.40
30648;DHT22;17683;53.360;9.736;2023-07-08T13:18:41;31.10;84.00
30648;DHT22;17683;53.360;9.736;2023-07-08T13:21:11;31.00;80.40
30648;DHT22;17683;53.360;9.736;2023-07-08T13:23:38;31.00;80.50
30648;DHT22;17683;53.360;9.736;2023-07-08T13:26:27;30.90;80.20
30648;DHT22;17683;53.360;9.736;2023-07-08T13:29:20;30.80;81.60
30648;DHT22;17683;53.360;9.736;2023-07-08T13:31:49;31.00;82.70
30648;DHT22;17683;53.360;9.736;2023-07-08T13:34:18;31.00;82.80
30648;DHT22;17683;53.360;9.736;2023-07-08T13:36:48;30.90;79.80
30648;DHT22;17683;53.360;9.736;2023-07-08T13:41:57;31.00;80.50
30648;DHT22;17683;53.360;9.736;2023-07-08T13:44:24;31.00;79.50
30648;DHT22;17683;53.360;9.736;2023-07-08T13:46:52;30.80;78.50
30648;DHT22;17683;53.360;9.736;2023-07-08T13:49:29;30.80;82.00
30648;DHT22;17683;53.360;9.736;2023-07-08T13:52:07;30.90;80.60
30648;DHT22;17683;53.360;9.736;2023-07-08T13:54:58;31.00;85.00
30648;DHT22;17683;53.360;9.736;2023-07-08T13:57:32;30.90;79.70
30648;DHT22;17683;53.360;9.736;2023-07-08T13:59:58;31.00;80.00
30648;DHT22;17683;53.360;9.736;2023-07-08T14:02:30;30.90;79.70
30648;DHT22;17683;53.360;9.736;2023-07-08T14:04:57;31.00;81.00
30648;DHT22;17683;53.360;9.736;2023-07-08T14:07:32;30.80;78.10
30648;DHT22;17683;53.360;9.736;2023-07-08T14:09:59;30.90;80.10
30648;DHT22;17683;53.360;9.736;2023-07-08T14:12:25;30.80;77.70
30648;DHT22;17683;53.360;9.736;2023-07-08T14:14:51;30.90;80.60
30648;DHT22;17683;53.360;9.736;2023-07-08T14:17:23;30.80;77.70
30648;DHT22;17683;53.360;9.736;2023-07-08T14:19:50;30.80;76.60
30648;DHT22;17683;53.360;9.736;2023-07-08T14:22:25;30.70;77.10
30648;DHT22;17683;53.360;9.736;2023-07-08T14:24:51;30.80;80.20
30648;DHT22;17683;53.360;9.736;2023-07-08T14:27:17;30.80;78.80
30648;DHT22;17683;53.360;9.736;2023-07-08T14:29:47;30.90;79.10
30648;DHT22;17683;53.360;9.736;2023-07-08T14:32:21;30.90;79.40
30648;DHT22;17683;53.360;9.736;2023-07-08T14:34:55;30.80;80.70
30648;DHT22;17683;53.360;9.736;2023-07-08T14:37:21;30.80;79.50
30648;DHT22;17683;53.360;9.736;2023-07-08T14:39:47;30.80;77.10
30648;DHT22;17683;53.360;9.736;2023-07-08T14:42:15;30.80;79.70
30648;DHT22;17683;53.360;9.736;2023-07-08T14:44:47;30.90;80.70
30648;DHT22;17683;53.360;9.736;2023-07-08T14:47:16;30.80;79.50
30648;DHT22;17683;53.360;9.736;2023-07-08T14:49:42;30.90;78.70
30648;DHT22;17683;53.360;9.736;2023-07-08T14:52:08;31.00;80.50
30648;DHT22;17683;53.360;9.736;2023-07-08T14:54:34;31.00;81.40
30648;DHT22;17683;53.360;9.736;2023-07-08T14:57:01;30.90;80.00
30648;DHT22;17683;53.360;9.736;2023-07-08T14:59:30;30.90;78.50
30648;DHT22;17683;53.360;9.736;2023-07-08T15:01:58;30.90;77.00
30648;DHT22;17683;53.360;9.736;2023-07-08T15:04:24;30.90;76.70
30648;DHT22;17683;53.360;9.736;2023-07-08T15:06:50;30.80;80.70
30648;DHT22;17683;53.360;9.736;2023-07-08T15:09:17;30.70;77.60
30648;DHT22;17683;53.360;9.736;2023-07-08T15:11:43;30.70;77.90
30648;DHT22;17683;53.360;9.736;2023-07-08T15:14:17;30.70;80.80
30648;DHT22;17683;53.360;9.736;2023-07-08T15:16:44;30.70;79.00
30648;DHT22;17683;53.360;9.736;2023-07-08T15:19:12;30.80;79.80
30648;DHT22;17683;53.360;9.736;2023-07-08T15:21:38;30.80;81.40
30648;DHT22;17683;53.360;9.736;2023-07-08T15:24:09;30.80;79.70
30648;DHT22;17683;53.360;9.736;2023-07-08T15:26:37;30.80;79.70
30648;DHT22;17683;53.360;9.736;2023-07-08T15:29:04;30.70;77.40
30648;DHT22;17683;53.360;9.736;2023-07-08T15:31:32;30.70;79.90
30648;DHT22;17683;53.360;9.736;2023-07-08T15:33:58;30.70;77.30
30648;DHT22;17683;53.360;9.736;2023-07-08T15:36:24;30.60;79.40
30648;DHT22;17683;53.360;9.736;2023-07-08T15:38:49;30.70;77.60
30648;DHT22;17683;53.360;9.736;2023-07-08T15:41:23;30.50;79.30
30648;DHT22;17683;53.360;9.736;2023-07-08T15:43:49;30.50;78.50
30648;DHT22;17683;53.360;9.736;2023-07-08T15:46:17;30.50;80.90
30648;DHT22;17683;53.360;9.736;2023-07-08T15:48:43;30.50;79.60
30648;DHT22;17683;53.360;9.736;2023-07-08T15:51:14;30.40;79.50
30648;DHT22;17683;53.360;9.736;2023-07-08T15:53:40;30.40;78.90
30648;DHT22;17683;53.360;9.736;2023-07-08T15:56:09;30.40;78.00
30648;DHT22;17683;53.360;9.736;2023-07-08T15:58:36;30.40;77.30
30648;DHT22;17683;53.360;9.736;2023-07-08T16:01:02;30.30;81.70
30648;DHT22;17683;53.360;9.736;2023-07-08T16:03:30;30.30;78.60
30648;DHT22;17683;53.360;9.736;2023-07-08T16:05:58;30.40;82.60
30648;DHT22;17683;53.360;9.736;2023-07-08T16:08:27;30.30;78.80
30648;DHT22;17683;53.360;9.736;2023-07-08T16:10:58;30.20;76.90
30648;DHT22;17683;53.360;9.736;2023-07-08T16:13:28;30.30;80.10
30648;DHT22;17683;53.360;9.736;2023-07-08T16:15:54;30.20;83.90
30648;DHT22;17683;53.360;9.736;2023-07-08T16:18:20;30.30;80.10
30648;DHT22;17683;53.360;9.736;2023-07-08T16:20:47;30.20;78.50
30648;DHT22;17683;53.360;9.736;2023-07-08T16:23:13;30.30;79.40
30648;DHT22;17683;53.360;9.736;2023-07-08T16:25:43;30.20;82.40
30648;DHT22;17683;53.360;9.736;2023-07-08T16:28:33;30.20;83.20
30648;DHT22;17683;53.360;9.736;2023-07-08T16:31:00;30.20;79.40
30648;DHT22;17683;53.360;9.736;2023-07-08T16:33:25;30.10;87.50
30648;DHT22;17683;53.360;9.736;2023-07-08T16:35:51;30.00;88.20
30648;DHT22;17683;53.360;9.736;2023-07-08T16:38:17;30.00;89.00
30648;DHT22;17683;53.360;9.736;2023-07-08T16:40:43;30.00;88.70
30648;DHT22;17683;53.360;9.736;2023-07-08T16:43:31;29.90;83.60
30648;DHT22;17683;53.360;9.736;2023-07-08T16:45:59;29.90;83.20
30648;DHT22;17683;53.360;9.736;2023-07-08T16:48:25;29.80;81.70
30648;DHT22;17683;53.360;9.736;2023-07-08T16:50:51;29.80;79.60
30648;DHT22;17683;53.360;9.736;2023-07-08T16:53:17;29.60;81.40
30648;DHT22;17683;53.360;9.736;2023-07-08T16:55:43;29.70;84.20